Time;durP1;ratioP1;P1;durP2;ratioP2;P2;SDS_P1;SDS_P2;PMS_P1;PMS_P2;Temp;Humidity;BMP_temperature;BMP_pressure;BME280_temperature;BME280_humidity;BME280_pressure;Samples;Min_cycle;Max_cycle;Signal;HPM_P1;HPM_P2
2023/07/15 00:01:28;;;;;;;5.55;3.60;;;24.70;80.50;;;;;;5077896;28;20093;-66
2023/07/15 00:03:54;;;;;;;5.30;3.22;;;24.70;79.20;;;;;;5092599;28;20076;-67
2023/07/15 00:06:21;;;;;;;6.03;3.10;;;24.60;80.50;;;;;;5087064;28;20040;-68
2023/07/15 00:08:46;;;;;;;6.40;3.70;;;24.90;80.60;;;;;;5093597;28;20451;-68
2023/07/15 00:11:16;;;;;;;6.72;3.40;;;24.70;83.70;;;;;;5095151;28;20044;-70
2023/07/15 00:13:41;;;;;;;5.93;3.53;;;24.80;80.70;;;;;;5092991;28;20044;-66
2023/07/15 00:16:08;;;;;;;6.25;3.65;;;24.60;83.20;;;;;;5079261;28;20137;-69
2023/07/15 00:18:34;;;;;;;7.30;3.78;;;24.60;83.50;;;;;;5094211;28;20051;-72
2023/07/15 00:21:00;;;;;;;6.25;3.47;;;24.50;80.20;;;;;;5090740;28;20048;-72
2023/07/15 00:23:26;;;;;;;7.40;3.60;;;24.90;80.40;;;;;;5091328;28;20052;-72
2023/07/15 00:25:53;;;;;;;5.50;3.55;;;24.60;80.40;;;;;;5095229;28;20040;-70
2023/07/15 00:28:20;;;;;;;6.72;3.40;;;24.60;80.30;;;;;;5094279;28;20048;-70
2023/07/15 00:30:46;;;;;;;6.13;3.83;;;24.70;80.50;;;;;;5092505;28;20051;-68
2023/07/15 00:33:13;;;;;;;6.70;3.85;;;24.70;80.20;;;;;;5074216;28;20039;-69
2023/07/15 00:35:39;;;;;;;6.13;3.47;;;24.50;80.40;;;;;;5095034;28;20079;-68
2023/07/15 00:38:05;;;;;;;5.70;3.65;;;24.50;80.00;;;;;;5093470;28;20794;-70
2023/07/15 00:40:34;;;;;;;5.45;3.22;;;24.50;80.00;;;;;;5094875;28;20436;-72
2023/07/15 00:43:38;;;;;;;5.75;3.53;;;24.60;83.40;;;;;;5088831;28;20482;-72
2023/07/15 00:46:19;;;;;;;7.55;3.70;;;24.70;79.40;;;;;;5073887;28;20067;-71
2023/07/15 00:49:11;;;;;;;6.65;3.38;;;24.60;80.30;;;;;;5083838;28;20486;-63
2023/07/15 00:51:38;;;;;;;5.43;3.40;;;24.70;79.30;;;;;;5081738;28;20048;-66
2023/07/15 00:54:04;;;;;;;7.70;3.70;;;24.80;81.20;;;;;;5092648;28;20056;-64
2023/07/15 00:56:31;;;;;;;5.75;4.07;;;24.60;83.40;;;;;;5091529;28;20108;-66
2023/07/15 00:58:57;;;;;;;6.72;3.53;;;24.60;80.40;;;;;;5050646;28;20079;-71
2023/07/15 01:01:23;;;;;;;7.57;3.70;;;24.70;80.20;;;;;;5073646;28;20079;-70
2023/07/15 01:03:48;;;;;;;6.07;3.42;;;24.50;80.00;;;;;;5093424;28;20109;-70
2023/07/15 01:06:14;;;;;;;5.80;3.55;;;24.40;80.00;;;;;;5085681;28;20470;-67
2023/07/15 01:08:40;;;;;;;6.95;3.67;;;24.40;80.10;;;;;;5082108;28;20133;-67
2023/07/15 01:11:06;;;;;;;6.00;3.40;;;24.50;79.90;;;;;;5093382;28;20494;-69
2023/07/15 01:13:35;;;;;;;6.85;3.50;;;24.50;79.90;;;;;;5092606;28;20055;-67
2023/07/15 01:16:01;;;;;;;6.15;3.40;;;24.50;83.10;;;;;;5077806;28;20053;-67
2023/07/15 01:18:28;;;;;;;6.20;3.22;;;24.70;80.10;;;;;;5076598;28;20747;-68
2023/07/15 01:20:58;;;;;;;6.43;3.35;;;24.50;80.00;;;;;;5093480;28;20047;-69
2023/07/15 01:23:25;;;;;;;5.55;3.20;;;24.40;79.90;;;;;;5084130;28;20481;-69
2023/07/15 01:25:50;;;;;;;6.28;3.50;;;24.40;82.70;;;;;;5091082;28;20458;-68
2023/07/15 01:28:16;;;;;;;10.65;3.53;;;24.40;83.10;;;;;;5091592;28;20075;-70
2023/07/15 01:30:42;;;;;;;5.60;3.30;;;24.30;83.20;;;;;;5083819;28;20398;-70
2023/07/15 01:33:07;;;;;;;7.13;3.60;;;24.50;79.90;;;;;;5092211;28;20425;-71
2023/07/15 01:35:33;;;;;;;5.88;3.40;;;24.40;79.80;;;;;;5092515;28;20070;-72
2023/07/15 01:37:59;;;;;;;8.90;3.70;;;24.40;79.90;;;;;;5092234;28;20048;-70
2023/07/15 01:40:25;;;;;;;5.55;3.15;;;24.40;79.90;;;;;;5083345;28;20123;-72
2023/07/15 01:42:50;;;;;;;5.75;3.45;;;24.50;79.90;;;;;;5073472;28;20528;-73
2023/07/15 01:45:16;;;;;;;5.55;3.40;;;24.40;79.90;;;;;;5086904;28;20405;-69
2023/07/15 01:47:42;;;;;;;5.20;3.15;;;24.60;79.60;;;;;;5084924;28;20051;-70
2023/07/15 01:50:08;;;;;;;5.45;3.70;;;24.60;80.00;;;;;;5093181;28;20040;-70
2023/07/15 01:52:34;;;;;;;5.20;3.30;;;24.30;82.40;;;;;;5092322;28;20044;-68
2023/07/15 01:55:00;;;;;;;5.72;3.17;;;24.60;80.00;;;;;;5092289;28;20496;-69
2023/07/15 01:57:26;;;;;;;5.40;3.15;;;24.40;80.00;;;;;;5088986;28;20106;-69
2023/07/15 01:59:57;;;;;;;5.32;3.25;;;24.50;80.00;;;;;;5088754;28;20071;-70
2023/07/15 02:02:24;;;;;;;6.50;3.15;;;24.60;83.30;;;;;;5093116;28;20111;-72
2023/07/15 02:04:50;;;;;;;7.15;3.42;;;24.70;80.20;;;;;;5092078;28;20048;-68
2023/07/15 02:07:15;;;;;;;4.70;2.95;;;24.60;79.90;;;;;;5091627;28;20504;-72
2023/07/15 02:09:41;;;;;;;5.75;3.33;;;24.60;79.90;;;;;;5072143;28;20044;-68
2023/07/15 02:12:07;;;;;;;5.78;3.42;;;24.70;79.90;;;;;;5088250;28;20036;-68
2023/07/15 02:14:36;;;;;;;6.53;3.80;;;24.60;79.40;;;;;;5084219;28;20055;-73
2023/07/15 02:17:03;;;;;;;6.82;3.75;;;24.60;79.80;;;;;;5089638;28;20040;-72
2023/07/15 02:19:32;;;;;;;5.93;3.00;;;24.60;80.00;;;;;;5092181;28;20141;-71
2023/07/15 02:21:58;;;;;;;5.28;3.20;;;24.60;80.00;;;;;;5093079;28;20036;-70
2023/07/15 02:24:24;;;;;;;6.65;3.25;;;24.70;80.00;;;;;;5093098;28;20048;-69
2023/07/15 02:26:49;;;;;;;5.13;3.15;;;24.70;79.80;;;;;;5064049;28;20555;-69
2023/07/15 02:29:15;;;;;;;7.60;3.00;;;24.60;79.80;;;;;;5074203;28;20405;-68
2023/07/15 02:31:44;;;;;;;5.63;2.90;;;24.50;79.80;;;;;;5084758;28;20040;-69
2023/07/15 02:34:10;;;;;;;5.63;3.33;;;24.90;83.50;;;;;;5092633;28;20086;-65
2023/07/15 02:36:36;;;;;;;6.13;3.35;;;24.70;80.10;;;;;;5089327;28;20036;-70
2023/07/15 02:39:04;;;;;;;5.75;2.97;;;24.40;79.70;;;;;;5091827;28;20147;-71
2023/07/15 02:41:29;;;;;;;6.13;3.40;;;24.50;79.90;;;;;;5085484;28;20127;-67
2023/07/15 02:43:55;;;;;;;5.53;3.05;;;24.70;79.80;;;;;;5074552;28;20084;-69
2023/07/15 02:46:21;;;;;;;5.63;3.13;;;24.60;79.70;;;;;;5091095;28;20055;-69
2023/07/15 02:48:47;;;;;;;5.38;2.97;;;24.60;79.50;;;;;;5086294;28;20071;-68
2023/07/15 02:51:12;;;;;;;5.43;3.15;;;24.40;79.50;;;;;;5091895;28;20044;-71
2023/07/15 02:53:39;;;;;;;5.00;3.00;;;24.60;79.60;;;;;;5092055;28;20044;-71
2023/07/15 02:56:06;;;;;;;5.57;3.30;;;24.60;79.70;;;;;;5093027;28;20036;-69
2023/07/15 02:58:32;;;;;;;4.95;2.95;;;24.50;82.80;;;;;;5090882;28;20048;-67
2023/07/15 03:00:57;;;;;;;5.53;3.25;;;24.70;79.80;;;;;;5089495;28;20044;-68
2023/07/15 03:03:23;;;;;;;6.25;3.22;;;24.50;79.50;;;;;;5082537;28;20033;-68
2023/07/15 03:05:49;;;;;;;5.30;3.22;;;24.40;79.60;;;;;;5087254;28;20101;-67
2023/07/15 03:08:15;;;;;;;7.88;3.40;;;24.50;79.60;;;;;;5090224;28;20485;-70
2023/07/15 03:10:44;;;;;;;5.40;3.10;;;24.80;83.30;;;;;;5094775;28;20127;-65
2023/07/15 03:13:10;;;;;;;5.72;3.20;;;24.50;80.10;;;;;;5093540;28;20043;-65
2023/07/15 03:15:36;;;;;;;5.60;3.00;;;24.50;83.10;;;;;;5096261;28;20101;-68
2023/07/15 03:18:03;;;;;;;5.57;2.95;;;24.50;82.70;;;;;;5094101;28;20454;-69
2023/07/15 03:20:29;;;;;;;5.00;3.00;;;24.40;79.40;;;;;;5096217;28;20044;-72
2023/07/15 03:22:55;;;;;;;5.78;3.13;;;24.50;79.60;;;;;;5082236;28;20068;-70
2023/07/15 03:25:21;;;;;;;5.28;3.00;;;24.40;79.60;;;;;;5090833;28;20466;-68
2023/07/15 03:27:50;;;;;;;4.78;2.90;;;24.40;79.50;;;;;;5079343;28;20040;-68
2023/07/15 03:30:17;;;;;;;5.55;3.15;;;24.50;82.70;;;;;;5076935;28;20481;-64
2023/07/15 03:32:44;;;;;;;5.88;3.35;;;24.60;79.70;;;;;;5095924;28;20093;-61
2023/07/15 03:35:10;;;;;;;5.15;3.33;;;24.40;79.80;;;;;;5095660;28;20043;-66
2023/07/15 03:37:37;;;;;;;6.15;3.38;;;24.50;79.60;;;;;;5077821;28;20542;-68
2023/07/15 03:40:08;;;;;;;6.47;3.78;;;24.50;79.90;;;;;;5087803;28;20125;-72
2023/07/15 03:42:34;;;;;;;5.90;3.50;;;24.70;79.50;;;;;;5094107;28;20048;-68
2023/07/15 03:45:00;;;;;;;4.97;3.00;;;24.40;79.80;;;;;;5094066;28;20051;-69
2023/07/15 03:47:25;;;;;;;4.93;3.00;;;24.30;82.20;;;;;;5084876;28;20201;-71
2023/07/15 03:49:51;;;;;;;5.95;3.35;;;24.40;79.20;;;;;;5095978;28;20055;-68
2023/07/15 03:52:17;;;;;;;5.65;3.03;;;24.00;82.60;;;;;;5094416;28;20492;-67
2023/07/15 03:54:43;;;;;;;4.57;2.85;;;24.40;79.50;;;;;;5094640;28;20507;-65
2023/07/15 03:57:09;;;;;;;6.38;2.90;;;24.50;79.60;;;;;;5086694;28;20048;-69
2023/07/15 03:59:35;;;;;;;4.45;3.10;;;24.70;79.70;;;;;;5090735;28;20566;-67
2023/07/15 04:02:02;;;;;;;5.72;3.20;;;24.10;79.50;;;;;;5094341;28;20044;-70
2023/07/15 04:04:27;;;;;;;5.28;3.10;;;24.30;82.50;;;;;;5095637;28;20094;-68
2023/07/15 04:06:54;;;;;;;6.00;2.88;;;24.40;79.40;;;;;;5093564;28;20825;-71
2023/07/15 04:09:21;;;;;;;5.75;2.97;;;24.40;79.60;;;;;;5085850;28;20041;-73
2023/07/15 04:11:46;;;;;;;7.55;3.08;;;24.60;79.90;;;;;;5087337;28;20105;-72
2023/07/15 04:14:12;;;;;;;5.45;3.08;;;24.40;79.50;;;;;;5094173;28;20482;-73
2023/07/15 04:16:38;;;;;;;5.43;2.85;;;24.60;82.80;;;;;;5092265;28;20401;-68
2023/07/15 04:19:05;;;;;;;5.18;2.90;;;24.30;79.60;;;;;;5094407;28;20040;-71
2023/07/15 04:21:31;;;;;;;4.78;2.90;;;24.20;79.40;;;;;;5075023;28;20574;-69
2023/07/15 04:23:57;;;;;;;6.25;2.85;;;24.70;79.70;;;;;;5090141;28;20507;-72
2023/07/15 04:26:23;;;;;;;5.63;3.10;;;24.60;79.60;;;;;;5082502;28;20396;-66
2023/07/15 04:28:49;;;;;;;4.40;2.90;;;24.30;79.50;;;;;;5082662;28;20131;-68
2023/07/15 04:31:16;;;;;;;5.32;2.85;;;24.30;79.20;;;;;;5090742;28;20481;-69
2023/07/15 04:33:45;;;;;;;7.13;3.00;;;24.40;79.30;;;;;;5094778;28;20044;-65
2023/07/15 04:36:11;;;;;;;5.45;2.78;;;24.50;78.00;;;;;;5093726;28;20474;-72
2023/07/15 04:38:37;;;;;;;5.38;2.90;;;24.50;79.40;;;;;;5092345;28;20062;-73
2023/07/15 04:41:03;;;;;;;5.88;3.05;;;24.40;79.10;;;;;;5081218;28;20115;-68
2023/07/15 04:43:29;;;;;;;4.70;2.90;;;24.60;79.10;;;;;;5076619;28;20072;-66
2023/07/15 04:45:55;;;;;;;4.63;2.70;;;24.50;79.00;;;;;;5092892;28;20131;-69
2023/07/15 04:48:23;;;;;;;7.05;2.85;;;24.50;78.60;;;;;;5085334;28;20048;-68
2023/07/15 04:50:50;;;;;;;4.50;2.90;;;24.60;79.20;;;;;;5092816;28;20128;-70
2023/07/15 04:53:16;;;;;;;6.15;3.10;;;24.60;79.10;;;;;;5082601;28;20724;-73
2023/07/15 04:55:42;;;;;;;6.78;3.30;;;24.80;79.10;;;;;;5076637;28;20044;-69
2023/07/15 04:58:09;;;;;;;5.63;2.83;;;24.80;79.30;;;;;;5092433;28;20036;-68
2023/07/15 05:00:36;;;;;;;5.20;2.72;;;24.60;79.00;;;;;;5093370;28;20044;-67
2023/07/15 05:03:04;;;;;;;5.55;2.90;;;24.70;79.00;;;;;;5093582;28;20069;-68
2023/07/15 05:05:30;;;;;;;4.78;2.65;;;24.90;79.10;;;;;;5078964;28;20153;-69
2023/07/15 05:08:00;;;;;;;5.47;2.75;;;24.80;78.70;;;;;;5091748;28;20080;-69
2023/07/15 05:10:26;;;;;;;4.70;2.75;;;25.10;78.80;;;;;;5077889;28;20074;-69
2023/07/15 05:12:51;;;;;;;4.60;2.78;;;24.90;78.20;;;;;;5074050;28;20045;-70
2023/07/15 05:15:17;;;;;;;5.38;3.03;;;25.00;78.10;;;;;;5073887;28;20040;-70
2023/07/15 05:17:44;;;;;;;5.97;2.92;;;25.00;78.00;;;;;;5093894;28;20559;-68
2023/07/15 05:20:10;;;;;;;4.57;2.70;;;25.10;78.20;;;;;;5091570;28;20055;-60
2023/07/15 05:22:36;;;;;;;6.32;2.75;;;25.10;78.10;;;;;;5092113;28;20036;-60
2023/07/15 05:25:02;;;;;;;4.57;2.60;;;25.20;78.10;;;;;;5082579;28;20379;-63
2023/07/15 05:27:28;;;;;;;4.93;2.65;;;25.10;78.10;;;;;;5088399;28;20036;-61
2023/07/15 05:29:54;;;;;;;5.25;2.92;;;25.20;77.90;;;;;;5089627;28;20036;-60
2023/07/15 05:32:19;;;;;;;5.57;2.83;;;25.30;77.60;;;;;;5093919;28;20036;-68
2023/07/15 05:34:45;;;;;;;8.23;3.17;;;25.50;77.60;;;;;;5090823;28;20501;-62
2023/07/15 05:37:11;;;;;;;5.25;3.10;;;25.30;77.10;;;;;;5090344;28;20375;-68
2023/07/15 05:39:37;;;;;;;6.43;3.25;;;25.80;77.00;;;;;;5073583;28;20055;-69
2023/07/15 05:42:03;;;;;;;5.82;3.20;;;25.50;76.10;;;;;;5073465;28;20105;-69
2023/07/15 05:44:30;;;;;;;6.45;3.20;;;25.60;76.00;;;;;;5079770;28;20075;-69
2023/07/15 05:46:56;;;;;;;7.18;3.30;;;25.70;75.90;;;;;;5091423;28;20079;-68
2023/07/15 05:49:22;;;;;;;6.63;2.90;;;25.70;75.60;;;;;;5091402;28;20510;-68
2023/07/15 05:51:48;;;;;;;8.23;3.28;;;25.60;76.10;;;;;;5093038;28;20094;-68
2023/07/15 05:54:14;;;;;;;7.60;3.30;;;25.70;76.00;;;;;;5075447;28;20043;-72
2023/07/15 05:56:39;;;;;;;9.00;3.17;;;25.60;75.80;;;;;;5072369;28;20123;-63
2023/07/15 05:59:05;;;;;;;9.95;3.05;;;25.60;75.50;;;;;;5091635;28;20543;-62
2023/07/15 06:01:31;;;;;;;8.20;3.30;;;25.70;75.60;;;;;;5075031;28;20406;-67
2023/07/15 06:03:58;;;;;;;8.10;2.90;;;25.80;75.40;;;;;;5093057;28;20048;-66
2023/07/15 06:06:24;;;;;;;6.40;2.97;;;25.90;78.20;;;;;;5093359;28;20059;-62
2023/07/15 06:08:51;;;;;;;6.88;2.90;;;26.00;75.30;;;;;;5090347;28;20101;-61
2023/07/15 06:11:19;;;;;;;5.45;3.20;;;26.10;75.20;;;;;;5091598;28;20470;-66
2023/07/15 06:13:45;;;;;;;6.13;2.92;;;26.00;74.60;;;;;;5073028;28;20052;-60
2023/07/15 06:16:10;;;;;;;5.45;3.17;;;26.30;74.90;;;;;;5072665;28;20116;-67
2023/07/15 06:18:36;;;;;;;8.88;3.28;;;26.10;74.70;;;;;;5082764;28;20571;-63
2023/07/15 06:21:02;;;;;;;6.45;3.28;;;26.20;74.60;;;;;;5083002;28;20087;-69
2023/07/15 06:23:28;;;;;;;7.50;3.58;;;26.40;74.60;;;;;;5092632;28;20044;-61
2023/07/15 06:25:55;;;;;;;10.95;3.28;;;26.40;74.00;;;;;;5089756;28;20051;-62
2023/07/15 06:28:21;;;;;;;7.32;3.38;;;26.50;74.20;;;;;;5087923;28;20043;-66
2023/07/15 06:30:48;;;;;;;6.68;3.55;;;26.40;74.20;;;;;;5072806;28;20490;-61
2023/07/15 06:33:15;;;;;;;7.90;3.45;;;26.60;74.30;;;;;;5072502;28;20048;-66
2023/07/15 06:35:40;;;;;;;5.45;3.47;;;26.60;74.10;;;;;;5072793;28;20110;-61
2023/07/15 06:38:06;;;;;;;6.47;3.25;;;26.50;73.70;;;;;;5056035;28;20481;-60
2023/07/15 06:40:32;;;;;;;7.72;3.35;;;26.70;74.00;;;;;;5092521;28;20083;-62
2023/07/15 06:42:58;;;;;;;7.15;3.40;;;26.80;73.90;;;;;;5066898;28;20133;-67
2023/07/15 06:45:31;;;;;;;5.65;3.10;;;26.70;73.80;;;;;;5078055;28;20048;-66
2023/07/15 06:47:57;;;;;;;7.13;3.25;;;27.00;74.30;;;;;;5080243;28;20039;-61
2023/07/15 06:50:23;;;;;;;8.05;3.13;;;26.90;73.70;;;;;;5099318;28;20496;-64
2023/07/15 06:52:48;;;;;;;9.43;3.38;;;26.70;73.60;;;;;;5097664;28;20048;-65
2023/07/15 06:55:14;;;;;;;7.18;3.45;;;27.00;73.90;;;;;;5098878;28;20047;-67
2023/07/15 06:57:40;;;;;;;6.68;3.33;;;26.90;74.20;;;;;;5084741;28;20028;-60
2023/07/15 07:00:07;;;;;;;6.32;2.88;;;26.80;73.60;;;;;;5098329;28;20040;-65
2023/07/15 07:02:32;;;;;;;7.72;3.20;;;27.10;73.20;;;;;;5095910;28;20074;-60
2023/07/15 07:04:58;;;;;;;8.18;3.28;;;27.00;73.60;;;;;;5099465;28;20044;-68
2023/07/15 07:07:24;;;;;;;6.68;2.95;;;27.00;73.60;;;;;;5099059;28;20038;-62
2023/07/15 07:09:50;;;;;;;6.60;2.90;;;27.20;73.50;;;;;;5092201;28;20555;-68
2023/07/15 07:12:15;;;;;;;7.18;2.72;;;27.20;73.60;;;;;;5098948;28;20062;-60
2023/07/15 07:14:42;;;;;;;7.75;2.90;;;27.40;73.90;;;;;;5099306;28;20052;-64
2023/07/15 07:17:07;;;;;;;7.53;3.20;;;27.10;73.40;;;;;;5098285;28;20039;-66
2023/07/15 07:19:33;;;;;;;6.03;2.55;;;27.40;73.70;;;;;;5088207;28;20135;-61
2023/07/15 07:21:59;;;;;;;6.30;2.60;;;27.40;73.80;;;;;;5079463;28;20503;-64
2023/07/15 07:24:25;;;;;;;5.95;2.60;;;27.50;73.90;;;;;;5078697;28;20049;-60
2023/07/15 07:26:51;;;;;;;6.18;2.78;;;27.40;73.80;;;;;;5082121;28;20028;-64
2023/07/15 07:29:16;;;;;;;6.43;3.20;;;27.50;74.00;;;;;;5094403;28;20043;-68
2023/07/15 07:31:42;;;;;;;5.75;2.72;;;27.50;73.80;;;;;;5098646;28;20044;-61
2023/07/15 07:34:08;;;;;;;5.88;3.10;;;27.70;73.90;;;;;;5091634;28;20405;-72
2023/07/15 07:36:34;;;;;;;7.72;2.97;;;27.60;73.70;;;;;;5093491;28;20044;-61
2023/07/15 07:39:00;;;;;;;7.00;2.63;;;27.60;73.70;;;;;;5093641;28;20047;-63
2023/07/15 07:41:25;;;;;;;9.57;3.08;;;27.70;73.80;;;;;;5097448;28;20040;-61
2023/07/15 07:43:51;;;;;;;5.05;2.90;;;27.80;73.80;;;;;;5095332;28;20044;-67
2023/07/15 07:46:17;;;;;;;5.00;3.00;;;28.10;74.00;;;;;;5098448;28;20416;-68
2023/07/15 07:48:43;;;;;;;4.28;2.45;;;27.90;73.50;;;;;;5090539;28;20052;-70
2023/07/15 07:51:08;;;;;;;8.27;2.60;;;28.20;73.90;;;;;;5087871;28;20443;-62
2023/07/15 07:53:35;;;;;;;4.97;2.60;;;28.00;73.70;;;;;;5087482;28;20088;-62
2023/07/15 07:56:01;;;;;;;7.38;2.63;;;27.90;73.00;;;;;;5093705;28;20078;-60
2023/07/15 07:58:27;;;;;;;4.47;2.63;;;28.10;73.60;;;;;;5095233;28;20048;-63
2023/07/15 08:00:53;;;;;;;4.95;2.40;;;28.40;74.00;;;;;;5075846;28;20087;-60
2023/07/15 08:03:18;;;;;;;5.88;2.75;;;28.30;73.90;;;;;;5095131;28;20400;-61
2023/07/15 08:05:45;;;;;;;5.93;2.35;;;28.10;73.90;;;;;;5093468;28;20063;-63
2023/07/15 08:08:11;;;;;;;5.13;2.28;;;28.20;74.40;;;;;;5095611;28;20371;-60
2023/07/15 08:10:37;;;;;;;4.68;2.40;;;27.80;73.90;;;;;;5087425;28;20048;-69
2023/07/15 08:13:05;;;;;;;4.72;2.30;;;28.50;74.30;;;;;;5093265;28;20553;-60
2023/07/15 08:15:35;;;;;;;4.90;2.33;;;27.90;73.30;;;;;;5090872;28;20044;-63
2023/07/15 08:18:01;;;;;;;4.28;2.35;;;28.40;74.70;;;;;;5094611;28;20044;-67
2023/07/15 08:20:29;;;;;;;7.53;2.20;;;28.20;74.40;;;;;;5092985;28;20440;-67
2023/07/15 08:22:56;;;;;;;5.88;2.40;;;28.40;74.10;;;;;;5093593;28;20036;-67
2023/07/15 08:25:21;;;;;;;5.60;2.47;;;28.00;74.10;;;;;;5095285;28;20044;-62
2023/07/15 08:27:47;;;;;;;3.85;2.30;;;28.40;74.10;;;;;;5088254;28;20120;-69
2023/07/15 08:30:13;;;;;;;5.32;2.92;;;28.10;73.90;;;;;;5089144;28;20105;-62
2023/07/15 08:32:39;;;;;;;4.53;2.00;;;28.30;74.20;;;;;;5093464;28;20036;-60
2023/07/15 08:35:05;;;;;;;4.85;2.33;;;28.60;74.20;;;;;;5094782;28;20095;-65
2023/07/15 08:37:31;;;;;;;4.22;2.35;;;28.30;74.00;;;;;;5093485;28;20101;-60
2023/07/15 08:39:57;;;;;;;7.78;2.50;;;28.60;74.10;;;;;;5094854;28;20048;-64
2023/07/15 08:42:23;;;;;;;4.60;2.22;;;28.40;74.10;;;;;;5093421;28;20044;-63
2023/07/15 08:44:49;;;;;;;4.07;2.05;;;28.70;74.40;;;;;;5088411;28;20055;-61
2023/07/15 08:47:19;;;;;;;6.50;2.20;;;28.50;73.90;;;;;;5081302;28;20056;-60
2023/07/15 08:49:46;;;;;;;4.28;2.47;;;28.50;74.60;;;;;;5093756;28;20528;-66
2023/07/15 08:52:12;;;;;;;4.55;2.55;;;28.50;74.50;;;;;;5092691;28;20044;-65
2023/07/15 08:54:38;;;;;;;3.90;2.30;;;28.10;74.00;;;;;;5094735;28;20484;-61
2023/07/15 08:57:06;;;;;;;5.45;2.55;;;28.20;74.60;;;;;;5091912;28;20063;-62
2023/07/15 08:59:32;;;;;;;5.28;2.47;;;28.60;74.40;;;;;;5092798;28;20055;-60
2023/07/15 09:01:59;;;;;;;4.35;2.40;;;28.20;74.50;;;;;;5088618;28;20162;-65
2023/07/15 09:04:25;;;;;;;8.68;2.53;;;28.40;74.50;;;;;;5091440;28;20047;-61
2023/07/15 09:06:54;;;;;;;5.00;2.50;;;28.50;74.50;;;;;;5089326;28;20494;-62
2023/07/15 09:09:32;;;;;;;5.55;2.28;;;28.50;74.60;;;;;;5091333;28;20389;-61
2023/07/15 09:12:06;;;;;;;7.40;2.45;;;28.50;73.50;;;;;;5090637;28;20047;-65
2023/07/15 09:14:32;;;;;;;4.68;2.13;;;28.60;73.40;;;;;;5093440;28;20495;-64
2023/07/15 09:16:59;;;;;;;4.60;2.10;;;28.30;74.30;;;;;;5089536;28;20490;-65
2023/07/15 09:19:28;;;;;;;4.45;2.13;;;28.40;74.60;;;;;;5087639;28;20055;-65
2023/07/15 09:22:03;;;;;;;4.45;2.50;;;28.60;74.30;;;;;;5093608;28;20474;-69
2023/07/15 09:24:30;;;;;;;4.57;2.28;;;28.60;74.80;;;;;;5093794;28;20058;-63
2023/07/15 09:26:56;;;;;;;2.90;1.88;;;28.50;74.30;;;;;;5094105;28;20040;-60
2023/07/15 09:29:21;;;;;;;3.67;2.10;;;28.60;74.20;;;;;;5091925;28;20043;-70
2023/07/15 09:31:48;;;;;;;6.07;2.63;;;28.90;74.30;;;;;;5093337;28;20047;-63
2023/07/15 09:34:13;;;;;;;4.45;2.20;;;28.80;74.30;;;;;;5093718;28;20401;-64
2023/07/15 09:36:39;;;;;;;4.07;2.10;;;28.70;74.20;;;;;;5082977;28;20044;-64
2023/07/15 09:39:12;;;;;;;4.68;2.40;;;28.60;74.40;;;;;;5092792;28;20044;-71
2023/07/15 09:41:39;;;;;;;4.45;2.28;;;28.60;75.10;;;;;;5093449;28;20449;-67
2023/07/15 09:44:05;;;;;;;5.68;2.10;;;28.40;74.60;;;;;;5092105;28;20405;-64
2023/07/15 09:46:31;;;;;;;4.68;2.40;;;28.10;74.50;;;;;;5093229;28;20054;-60
2023/07/15 09:48:57;;;;;;;5.07;2.20;;;28.30;74.50;;;;;;5092091;28;20477;-60
2023/07/15 09:51:23;;;;;;;5.75;2.40;;;28.20;74.80;;;;;;5093539;28;20044;-65
2023/07/15 09:53:53;;;;;;;4.80;2.13;;;28.20;75.00;;;;;;5079903;28;20044;-62
2023/07/15 09:56:32;;;;;;;4.35;2.30;;;28.20;75.40;;;;;;5088381;28;20105;-63
2023/07/15 09:59:08;;;;;;;4.55;2.30;;;28.00;75.40;;;;;;5092896;28;20079;-64
2023/07/15 10:02:04;;;;;;;5.50;2.10;;;28.40;74.00;;;;;;5074603;28;20048;-60
2023/07/15 10:04:35;;;;;;;6.70;2.50;;;28.20;74.10;;;;;;5092941;28;20051;-63
2023/07/15 10:07:01;;;;;;;4.70;2.05;;;28.60;75.80;;;;;;5091721;28;20111;-68
2023/07/15 10:09:28;;;;;;;4.68;2.20;;;28.10;75.30;;;;;;5090623;28;20048;-62
2023/07/15 10:11:54;;;;;;;6.15;2.47;;;28.40;75.60;;;;;;5038509;28;20082;-64
2023/07/15 10:14:20;;;;;;;5.25;2.10;;;28.50;75.30;;;;;;5075059;28;20041;-67
2023/07/15 10:16:49;;;;;;;6.93;2.50;;;28.50;75.60;;;;;;5074792;28;20454;-59
2023/07/15 10:19:38;;;;;;;4.10;2.40;;;28.70;75.90;;;;;;5090432;28;20059;-64
2023/07/15 10:22:04;;;;;;;5.95;2.40;;;28.50;74.50;;;;;;5080114;28;20407;-67
2023/07/15 10:24:30;;;;;;;4.00;2.17;;;28.60;75.30;;;;;;5092811;28;20051;-67
2023/07/15 10:26:56;;;;;;;5.65;2.30;;;28.50;75.40;;;;;;5086843;28;20123;-69
2023/07/15 10:29:25;;;;;;;3.88;2.30;;;28.50;75.30;;;;;;5072835;28;20517;-60
2023/07/15 10:32:19;;;;;;;5.82;2.42;;;28.50;75.40;;;;;;5074979;28;20489;-64
2023/07/15 10:34:50;;;;;;;6.22;2.25;;;28.30;75.30;;;;;;5057673;28;20060;-65
2023/07/15 10:37:19;;;;;;;7.97;2.30;;;28.50;76.00;;;;;;5092300;28;20048;-61
2023/07/15 10:39:46;;;;;;;6.72;2.63;;;28.40;75.70;;;;;;5091206;28;20513;-65
2023/07/15 10:42:13;;;;;;;6.07;2.47;;;28.40;75.40;;;;;;5068850;28;20089;-67
2023/07/15 10:44:47;;;;;;;3.72;2.10;;;28.50;75.80;;;;;;5080366;28;20059;-66
2023/07/15 10:47:15;;;;;;;5.50;2.40;;;28.30;74.00;;;;;;5071965;28;20056;-67
2023/07/15 10:49:43;;;;;;;4.40;2.30;;;28.40;75.30;;;;;;5091456;28;20070;-67
2023/07/15 10:52:09;;;;;;;4.93;2.30;;;28.70;75.40;;;;;;5090388;28;20082;-67
2023/07/15 10:54:39;;;;;;;3.13;2.10;;;28.50;74.80;;;;;;5077931;28;20044;-66
2023/07/15 10:57:09;;;;;;;3.70;1.85;;;28.70;75.10;;;;;;5087262;28;20379;-67
2023/07/15 10:59:36;;;;;;;4.07;2.13;;;28.60;74.40;;;;;;5083716;28;20050;-71
2023/07/15 11:02:02;;;;;;;5.55;2.22;;;28.60;74.70;;;;;;5082364;28;20032;-68
2023/07/15 11:04:28;;;;;;;4.72;2.33;;;28.40;73.90;;;;;;5073868;28;20463;-68
2023/07/15 11:07:01;;;;;;;6.55;2.10;;;28.50;74.20;;;;;;5091517;28;20048;-72
2023/07/15 11:09:27;;;;;;;6.68;2.38;;;28.70;75.00;;;;;;5090539;28;20053;-68
2023/07/15 11:11:53;;;;;;;4.68;2.10;;;28.40;74.20;;;;;;5087617;28;20489;-63
2023/07/15 11:14:26;;;;;;;6.65;2.10;;;28.70;74.60;;;;;;5091102;28;20040;-70
2023/07/15 11:16:56;;;;;;;4.68;2.10;;;28.60;73.20;;;;;;5092031;28;20055;-67
2023/07/15 11:19:23;;;;;;;5.35;2.33;;;28.80;74.60;;;;;;5086005;28;20588;-70
2023/07/15 11:21:50;;;;;;;6.00;2.17;;;28.50;74.40;;;;;;5091102;28;20485;-71
2023/07/15 11:24:16;;;;;;;4.60;2.30;;;28.50;74.50;;;;;;5089839;28;20494;-72
2023/07/15 11:26:42;;;;;;;6.63;2.17;;;28.60;74.30;;;;;;5091918;28;20174;-63
2023/07/15 11:29:38;;;;;;;3.97;2.25;;;28.30;74.20;;;;;;5092472;28;20048;-66
2023/07/15 11:32:06;;;;;;;5.80;2.33;;;28.40;74.70;;;;;;5079605;28;20178;-77
2023/07/15 11:34:32;;;;;;;5.47;2.30;;;28.40;74.20;;;;;;5091453;28;20088;-71
2023/07/15 11:37:02;;;;;;;5.13;2.20;;;28.30;74.70;;;;;;5075599;28;20048;-66
2023/07/15 11:39:28;;;;;;;6.03;2.25;;;28.30;74.90;;;;;;5078296;28;20059;-70
2023/07/15 11:41:54;;;;;;;5.22;2.40;;;28.50;75.10;;;;;;5091316;28;20044;-71
2023/07/15 11:44:21;;;;;;;5.60;2.20;;;28.10;74.90;;;;;;5092236;28;20097;-71
2023/07/15 11:46:47;;;;;;;3.80;2.17;;;28.20;75.20;;;;;;5093525;28;20139;-71
2023/07/15 11:49:19;;;;;;;4.57;2.05;;;28.00;74.70;;;;;;5095004;28;20148;-68
2023/07/15 11:51:45;;;;;;;7.30;2.50;;;28.10;75.70;;;;;;5074080;28;20048;-70
2023/07/15 11:54:12;;;;;;;5.90;2.20;;;28.10;75.30;;;;;;5092756;28;20408;-60
2023/07/15 11:56:45;;;;;;;7.10;2.33;;;28.30;75.70;;;;;;5093855;28;20043;-60
2023/07/15 11:59:12;;;;;;;8.25;2.45;;;28.20;74.40;;;;;;5096207;28;20393;-60
2023/07/15 12:01:41;;;;;;;5.65;3.10;;;28.10;75.70;;;;;;5075769;28;20101;-60
2023/07/15 12:04:14;;;;;;;35.55;2.88;;;27.90;75.40;;;;;;5077834;28;20040;-61
2023/07/15 12:06:50;;;;;;;5.07;2.60;;;28.10;76.30;;;;;;5088945;28;20076;-62
2023/07/15 12:09:16;;;;;;;4.88;2.20;;;27.70;75.90;;;;;;5087028;28;20040;-71
2023/07/15 12:11:42;;;;;;;7.40;2.25;;;27.80;75.70;;;;;;5094005;28;20071;-71
2023/07/15 12:14:08;;;;;;;4.68;2.30;;;27.80;75.80;;;;;;5093226;28;20490;-65
2023/07/15 12:16:35;;;;;;;4.40;2.40;;;27.80;75.90;;;;;;5094461;28;20123;-68
2023/07/15 12:19:01;;;;;;;8.63;2.60;;;27.60;76.30;;;;;;5094138;28;20044;-69
2023/07/15 12:21:27;;;;;;;4.78;2.60;;;27.50;76.10;;;;;;5094763;28;20097;-72
2023/07/15 12:23:55;;;;;;;5.53;2.30;;;27.60;76.50;;;;;;5095303;28;20374;-71
2023/07/15 12:26:21;;;;;;;6.07;2.78;;;27.50;76.80;;;;;;5067360;28;20486;-70
2023/07/15 12:28:47;;;;;;;13.98;2.85;;;27.50;76.50;;;;;;5077141;28;20047;-70
2023/07/15 12:31:13;;;;;;;7.15;2.38;;;27.70;76.90;;;;;;5093798;28;20040;-70
2023/07/15 12:33:40;;;;;;;6.22;2.65;;;27.30;77.10;;;;;;5093569;28;20036;-72
2023/07/15 12:36:07;;;;;;;4.95;2.20;;;27.00;77.00;;;;;;5095106;28;20097;-65
2023/07/15 12:38:33;;;;;;;6.05;2.38;;;27.30;77.60;;;;;;5094877;28;20048;-68
2023/07/15 12:41:00;;;;;;;5.90;2.67;;;27.10;77.20;;;;;;5092944;28;20451;-62
2023/07/15 12:43:26;;;;;;;5.05;2.63;;;27.30;77.70;;;;;;5081134;28;20040;-60
2023/07/15 12:45:52;;;;;;;5.32;2.50;;;27.20;77.60;;;;;;5074421;28;20056;-69